Time;durP1;ratioP1;P1;durP2;ratioP2;P2;SDS_P1;SDS_P2;PMS_P1;PMS_P2;Temp;Humidity;BMP_temperature;BMP_pressure;BME280_temperature;BME280_humidity;BME280_pressure;Samples;Min_cycle;Max_cycle;Signal;HPM_P1;HPM_P2
2022/05/03 04:22:13;;;;;;;;;;;;;;;9.37;69.51;100577.78;5014055;28;1719;-90
2022/05/03 04:24:43;;;;;;;;;;;;;;;9.49;70.78;100570.16;5013119;28;1800;-92
2022/05/03 04:27:08;;;;;;;;;;;;;;;9.46;71.83;100572.59;5010783;28;1747;-90
2022/05/03 04:29:33;;;;;;;;;;;;;;;9.12;71.71;100585.91;4994729;28;1563;-90
2022/05/03 04:31:58;;;;;;;;;;;;;;;9.00;72.17;100577.97;5013423;28;1228;-90
2022/05/03 04:34:24;;;;;;;;;;;;;;;9.31;71.54;100576.13;5002934;28;1497;-90
2022/05/03 04:36:51;;;;;;;;;;;;;;;9.38;70.93;100582.16;5013108;28;1489;-90
2022/05/03 04:39:16;;;;;;;;;;;;;;;9.48;68.75;100584.09;5013282;28;1902;-90
2022/05/03 04:41:41;;;;;;;;;;;;;;;9.64;69.29;100588.47;5011435;28;1758;-90
2022/05/03 04:44:06;;;;;;;;;;;;;;;9.57;68.99;100590.66;4999656;28;1827;-90
2022/05/03 04:46:31;;;;;;;;;;;;;;;9.54;69.89;100599.38;5011672;28;1806;-90
2022/05/03 04:48:56;;;;;;;;;;;;;;;9.70;70.75;100594.75;5013329;28;1166;-90
2022/05/03 04:51:24;;;;;;;;;;;;;;;9.74;70.70;100593.94;5006604;28;1438;-89
2022/05/03 04:53:49;;;;;;;;;;;;;;;9.67;70.73;100607.06;5003156;28;1181;-90
2022/05/03 04:56:15;;;;;;;;;;;;;;;9.71;71.42;100602.69;4998640;28;1796;-89
2022/05/03 04:58:41;;;;;;;;;;;;;;;9.81;71.92;100604.59;5012728;28;1894;-88
2022/05/03 05:01:06;;;;;;;;;;;;;;;9.84;71.65;100604.91;5012396;28;1750;-89
2022/05/03 05:03:31;;;;;;;;;;;;;;;9.87;69.96;100600.78;5012290;28;1678;-89
2022/05/03 05:05:57;;;;;;;;;;;;;;;9.88;70.77;100605.16;5014457;28;1361;-88
2022/05/03 05:08:22;;;;;;;;;;;;;;;9.95;71.16;100611.19;5012359;28;1370;-90
2022/05/03 05:10:47;;;;;;;;;;;;;;;9.89;71.04;100612.25;5001199;28;1308;-88
2022/05/03 05:13:12;;;;;;;;;;;;;;;9.85;70.25;100620.22;5014199;28;1500;-89
2022/05/03 05:15:37;;;;;;;;;;;;;;;9.77;71.77;100614.47;5017880;28;1203;-89
2022/05/03 05:18:02;;;;;;;;;;;;;;;9.93;71.17;100618.03;5015487;28;1885;-87
2022/05/03 05:20:28;;;;;;;;;;;;;;;10.09;70.40;100627.84;5016212;28;1262;-88
2022/05/03 05:22:53;;;;;;;;;;;;;;;9.95;69.69;100619.41;5017323;28;801;-88
2022/05/03 05:25:18;;;;;;;;;;;;;;;9.91;72.54;100631.13;5015814;28;1324;-88
2022/05/03 05:27:44;;;;;;;;;;;;;;;9.74;71.34;100626.75;5015553;28;1704;-88
2022/05/03 05:30:09;;;;;;;;;;;;;;;9.72;73.30;100625.38;5014055;28;1429;-88
2022/05/03 05:32:35;;;;;;;;;;;;;;;9.71;71.12;100627.28;5015643;28;1634;-88
2022/05/03 05:35:00;;;;;;;;;;;;;;;9.94;71.33;100625.97;5014473;28;1432;-88
2022/05/03 05:37:25;;;;;;;;;;;;;;;10.12;70.18;100632.78;5015714;28;1902;-87
2022/05/03 05:39:50;;;;;;;;;;;;;;;10.21;68.41;100629.25;5007154;28;1235;-88
2022/05/03 05:42:15;;;;;;;;;;;;;;;10.31;66.50;100633.06;5006246;28;1628;-87
2022/05/03 05:44:40;;;;;;;;;;;;;;;10.42;66.81;100635.53;5013947;28;1633;-88
2022/05/03 05:47:06;;;;;;;;;;;;;;;10.29;63.56;100627.06;5002146;28;1686;-88
2022/05/03 05:49:31;;;;;;;;;;;;;;;10.26;63.96;100613.94;4996053;28;1310;-88
2022/05/03 05:53:31;;;;;;;;;;;;;;;10.30;62.83;100620.47;5011541;28;1397;-88
2022/05/03 05:54:41;;;;;;;;;;;;;;;10.29;64.57;100624.34;5016359;28;1547;-88
2022/05/03 05:57:07;;;;;;;;;;;;;;;10.31;62.86;100620.19;5014739;28;1961;-88
2022/05/03 05:59:32;;;;;;;;;;;;;;;10.51;62.76;100624.84;5014596;28;1676;-88
2022/05/03 06:01:57;;;;;;;;;;;;;;;10.56;61.16;100622.91;5015358;28;1419;-88
2022/05/03 06:04:22;;;;;;;;;;;;;;;10.49;61.09;100622.38;5010551;28;1156;-88
2022/05/03 06:06:47;;;;;;;;;;;;;;;10.27;64.18;100624.59;4995691;28;1215;-89
2022/05/03 06:09:12;;;;;;;;;;;;;;;10.52;66.07;100629.22;5006214;28;1546;-88
2022/05/03 06:11:37;;;;;;;;;;;;;;;10.51;62.25;100633.03;5015049;28;1080;-88
2022/05/03 06:14:03;;;;;;;;;;;;;;;10.57;63.07;100634.66;5015516;28;1332;-88
2022/05/03 06:16:28;;;;;;;;;;;;;;;10.66;60.43;100634.91;5014741;28;1419;-88
2022/05/03 06:18:53;;;;;;;;;;;;;;;10.48;62.22;100630.84;5011454;28;1890;-88
2022/05/03 06:21:18;;;;;;;;;;;;;;;10.63;61.23;100633.56;5002339;28;1351;-89
2022/05/03 06:23:44;;;;;;;;;;;;;;;10.60;60.21;100629.47;5013691;28;935;-88
2022/05/03 06:26:09;;;;;;;;;;;;;;;10.57;58.79;100629.19;5014975;28;1213;-88
2022/05/03 06:28:35;;;;;;;;;;;;;;;10.55;60.40;100628.63;5015160;28;1370;-88
2022/05/03 06:31:00;;;;;;;;;;;;;;;10.59;60.30;100643.41;5015204;28;1238;-88
2022/05/03 06:33:25;;;;;;;;;;;;;;;10.45;60.20;100643.19;5014833;28;1156;-88
2022/05/03 06:35:50;;;;;;;;;;;;;;;10.39;62.09;100636.06;5014795;28;1221;-88
2022/05/03 06:38:15;;;;;;;;;;;;;;;10.54;61.93;100640.72;5014522;28;1914;-89
2022/05/03 06:40:41;;;;;;;;;;;;;;;10.48;62.24;100648.09;5014930;28;889;-88
2022/05/03 06:43:06;;;;;;;;;;;;;;;10.61;60.89;100642.06;5014004;28;1392;-88
2022/05/03 06:45:31;;;;;;;;;;;;;;;10.65;59.63;100636.84;5014997;28;1558;-89
2022/05/03 06:47:57;;;;;;;;;;;;;;;10.64;58.90;100635.19;5014566;28;1198;-88
2022/05/03 06:50:22;;;;;;;;;;;;;;;10.67;59.63;100634.66;5014843;28;1224;-89
2022/05/03 06:52:48;;;;;;;;;;;;;;;10.83;61.44;100641.72;5015964;28;821;-89
2022/05/03 06:55:13;;;;;;;;;;;;;;;10.91;59.33;100643.06;5015663;28;892;-88
2022/05/03 06:57:39;;;;;;;;;;;;;;;10.98;57.46;100643.56;5013593;28;1902;-88
2022/05/03 07:00:05;;;;;;;;;;;;;;;10.98;57.27;100646.31;5013455;28;1359;-88
2022/05/03 07:02:31;;;;;;;;;;;;;;;10.97;55.62;100644.69;5013330;28;1324;-89
2022/05/03 07:04:57;;;;;;;;;;;;;;;11.07;55.42;100649.28;5014462;28;1323;-88
2022/05/03 07:07:22;;;;;;;;;;;;;;;11.02;54.91;100646.59;5014286;28;1210;-88
2022/05/03 07:09:47;;;;;;;;;;;;;;;11.16;55.72;100642.94;5014372;28;1056;-88
2022/05/03 07:12:13;;;;;;;;;;;;;;;11.15;54.20;100646.78;5007348;28;1416;-89
2022/05/03 07:14:38;;;;;;;;;;;;;;;11.25;55.20;100649.50;5015250;28;1205;-88
2022/05/03 07:17:04;;;;;;;;;;;;;;;11.37;55.03;100652.72;5014201;28;1150;-89
2022/05/03 07:24:57;;;;;;;;;;;;;;;11.58;53.13;100645.19;5015149;28;699;-89
2022/05/03 07:27:22;;;;;;;;;;;;;;;11.61;52.90;100650.13;5007997;28;1448;-89
2022/05/03 07:29:47;;;;;;;;;;;;;;;11.69;54.35;100651.44;5012927;28;1422;-88
2022/05/03 07:32:12;;;;;;;;;;;;;;;11.81;54.41;100659.34;5013952;28;1401;-89
2022/05/03 07:34:37;;;;;;;;;;;;;;;11.71;52.85;100649.25;5013535;28;1185;-88
2022/05/03 07:37:02;;;;;;;;;;;;;;;11.78;53.05;100652.50;5013813;28;1240;-89
2022/05/03 07:39:28;;;;;;;;;;;;;;;11.89;53.87;100653.25;5013875;28;1886;-89
2022/05/03 07:41:53;;;;;;;;;;;;;;;11.96;53.49;100656.50;5013027;28;1488;-89
2022/05/03 07:44:19;;;;;;;;;;;;;;;11.98;52.56;100655.13;5013560;28;1210;-89
2022/05/03 07:46:44;;;;;;;;;;;;;;;11.95;52.57;100654.84;5014787;28;1178;-89
2022/05/03 07:49:10;;;;;;;;;;;;;;;11.99;52.79;100654.00;5013486;28;1364;-89
2022/05/03 07:51:35;;;;;;;;;;;;;;;12.04;53.60;100655.88;5013860;28;1311;-89
2022/05/03 07:54:00;;;;;;;;;;;;;;;12.07;53.36;100653.41;5012368;28;1398;-89
2022/05/03 07:56:26;;;;;;;;;;;;;;;12.15;52.94;100653.88;5013362;28;1299;-89
2022/05/03 07:58:51;;;;;;;;;;;;;;;12.20;52.10;100664.81;5013143;28;1901;-89
2022/05/03 08:01:16;;;;;;;;;;;;;;;12.16;50.97;100664.59;5014810;28;1059;-89
2022/05/03 08:03:41;;;;;;;;;;;;;;;12.17;51.42;100668.94;5013799;28;973;-89
2022/05/03 08:06:06;;;;;;;;;;;;;;;12.24;49.90;100663.97;5015409;28;1274;-89
2022/05/03 08:08:31;;;;;;;;;;;;;;;12.29;48.62;100669.41;5010874;28;1476;-89
2022/05/03 08:10:57;;;;;;;;;;;;;;;12.22;46.71;100671.66;5014298;28;1130;-89
2022/05/03 08:13:22;;;;;;;;;;;;;;;12.28;49.08;100661.44;5013235;28;1302;-89
2022/05/03 08:15:47;;;;;;;;;;;;;;;12.26;43.68;100666.41;5013328;28;1216;-90
2022/05/03 08:18:12;;;;;;;;;;;;;;;12.17;44.17;100657.97;5013053;28;1894;-89
2022/05/03 08:20:38;;;;;;;;;;;;;;;12.19;46.67;100655.75;5013134;28;973;-89
2022/05/03 08:23:03;;;;;;;;;;;;;;;12.32;46.93;100660.59;5012003;28;1464;-89
2022/05/03 08:25:29;;;;;;;;;;;;;;;12.45;48.73;100662.66;5012736;28;1303;-89
2022/05/03 08:27:55;;;;;;;;;;;;;;;12.58;51.73;100666.69;5011815;28;1439;-89
2022/05/03 08:30:20;;;;;;;;;;;;;;;12.65;50.39;100671.81;5012826;28;1204;-89
2022/05/03 08:32:45;;;;;;;;;;;;;;;12.57;49.94;100678.75;5012592;28;1095;-89
2022/05/03 08:35:11;;;;;;;;;;;;;;;12.59;48.86;100670.25;5012671;28;968;-88
2022/05/03 08:43:05;;;;;;;;;;;;;;;12.88;51.11;100671.84;5014241;28;714;-89
2022/05/03 08:45:30;;;;;;;;;;;;;;;12.84;48.09;100668.03;5012681;28;1269;-89
2022/05/03 08:47:56;;;;;;;;;;;;;;;12.80;44.46;100666.16;5014141;28;1372;-89
2022/05/03 08:50:22;;;;;;;;;;;;;;;12.78;44.27;100679.34;5016946;28;1166;-89
2022/05/03 08:52:55;;;;;;;;;;;;;;;12.72;44.84;100675.84;5016786;28;1219;-89
2022/05/03 08:55:24;;;;;;;;;;;;;;;12.89;45.26;100678.97;5016034;28;1848;-89
2022/05/03 08:57:49;;;;;;;;;;;;;;;13.07;44.73;100677.41;5016691;28;1891;-89
2022/05/03 09:00:15;;;;;;;;;;;;;;;13.04;44.08;100680.72;5016249;28;1381;-89
2022/05/03 09:02:41;;;;;;;;;;;;;;;13.06;43.99;100674.94;5016705;28;1324;-89
2022/05/03 09:05:07;;;;;;;;;;;;;;;13.08;47.05;100678.22;5016719;28;1499;-90
2022/05/03 09:07:34;;;;;;;;;;;;;;;13.09;47.50;100677.13;5016317;28;1345;-89
2022/05/03 09:10:13;;;;;;;;;;;;;;;13.11;47.25;100680.38;5016749;28;1303;-89
2022/05/03 09:12:38;;;;;;;;;;;;;;;13.12;44.18;100676.50;5017887;28;939;-89
2022/05/03 09:15:04;;;;;;;;;;;;;;;13.07;45.17;100682.06;5016133;28;1111;-89
2022/05/03 09:17:45;;;;;;;;;;;;;;;13.18;46.75;100678.13;5015537;28;1886;-89
2022/05/03 09:25:50;;;;;;;;;;;;;;;13.78;46.17;100681.19;5017973;28;1188;-89
2022/05/03 09:28:18;;;;;;;;;;;;;;;13.83;47.00;100683.84;5017644;28;845;-89
2022/05/03 09:30:51;;;;;;;;;;;;;;;13.86;47.98;100677.75;5016427;28;1298;-89
2022/05/03 09:33:17;;;;;;;;;;;;;;;13.98;48.14;100672.59;5014266;28;1486;-89
2022/05/03 09:35:42;;;;;;;;;;;;;;;14.06;47.71;100673.88;5015943;28;1330;-89
2022/05/03 09:38:07;;;;;;;;;;;;;;;14.18;49.13;100674.22;5015942;28;1910;-89
2022/05/03 09:40:36;;;;;;;;;;;;;;;14.28;49.54;100674.88;5017231;28;670;-89
2022/05/03 09:43:01;;;;;;;;;;;;;;;14.36;47.78;100676.13;5016747;28;813;-89
2022/05/03 09:45:26;;;;;;;;;;;;;;;14.45;49.85;100681.81;5016241;28;1251;-89
2022/05/03 14:27:28;;;;;;;;;;;;;;;23.91;28.82;100459.88;4996960;28;1288;-90
2022/05/03 14:29:54;;;;;;;;;;;;;;;23.97;29.46;100452.81;4979657;28;2012;-91
2022/05/03 14:32:19;;;;;;;;;;;;;;;23.61;30.20;100452.13;4979981;28;1151;-92
2022/05/03 14:34:44;;;;;;;;;;;;;;;23.38;30.62;100463.22;4980230;28;1091;-92
2022/05/03 14:37:09;;;;;;;;;;;;;;;24.50;28.20;100460.13;4980253;28;1296;-92
2022/05/03 14:39:34;;;;;;;;;;;;;;;25.95;25.42;100452.88;4980349;28;1910;-92
2022/05/03 14:42:02;;;;;;;;;;;;;;;25.62;24.54;100450.13;4983179;28;1398;-92
2022/05/03 14:44:27;;;;;;;;;;;;;;;24.82;24.90;100455.03;4981306;28;1280;-91
2022/05/03 14:46:52;;;;;;;;;;;;;;;24.59;25.96;100457.06;4984988;28;1249;-93
2022/05/03 14:49:17;;;;;;;;;;;;;;;23.69;27.41;100458.66;4987777;28;1076;-93
2022/05/03 14:51:42;;;;;;;;;;;;;;;23.40;28.18;100448.88;4984108;28;1174;-93
2022/05/03 14:54:08;;;;;;;;;;;;;;;22.93;32.22;100446.28;4988368;28;1071;-92
2022/05/03 15:51:06;;;;;;;;;;;;;;;23.05;29.43;100436.97;5031524;28;1172;-87
2022/05/03 15:53:31;;;;;;;;;;;;;;;22.67;29.16;100446.84;5034120;28;814;-88
2022/05/03 15:55:57;;;;;;;;;;;;;;;22.22;29.58;100442.59;5033931;28;984;-87
2022/05/03 15:58:23;;;;;;;;;;;;;;;22.53;30.03;100440.97;5024739;28;1909;-87
2022/05/03 16:00:49;;;;;;;;;;;;;;;22.74;30.58;100443.41;5041618;28;1332;-88
2022/05/03 16:03:14;;;;;;;;;;;;;;;22.16;30.80;100446.81;5032712;28;1451;-88
2022/05/03 16:05:40;;;;;;;;;;;;;;;22.05;32.29;100447.72;5033628;28;1258;-89
2022/05/03 16:08:05;;;;;;;;;;;;;;;22.96;31.02;100426.84;5040419;28;1368;-88
2022/05/03 16:10:30;;;;;;;;;;;;;;;22.77;31.03;100437.16;5033926;28;1349;-88
2022/05/03 16:12:55;;;;;;;;;;;;;;;22.67;31.26;100437.69;5032934;28;1770;-88
2022/05/03 16:15:22;;;;;;;;;;;;;;;22.14;30.63;100438.00;5026281;28;1223;-88
2022/05/03 16:17:48;;;;;;;;;;;;;;;21.88;31.79;100440.47;5023615;28;1886;-89
2022/05/03 16:20:13;;;;;;;;;;;;;;;21.66;31.71;100435.50;5031666;28;1446;-89
2022/05/03 16:22:38;;;;;;;;;;;;;;;22.08;31.30;100436.66;5054042;28;1007;-89
2022/05/03 16:25:04;;;;;;;;;;;;;;;21.98;31.23;100433.59;5034823;28;1414;-89
2022/05/03 16:27:30;;;;;;;;;;;;;;;21.44;32.35;100437.69;5036011;28;1361;-89
2022/05/03 16:29:55;;;;;;;;;;;;;;;21.44;32.97;100434.91;5032568;28;1565;-90
2022/05/03 16:32:21;;;;;;;;;;;;;;;21.42;33.26;100431.69;5053811;28;829;-88
2022/05/03 16:34:46;;;;;;;;;;;;;;;21.56;33.00;100434.03;5036276;28;1393;-88
2022/05/03 16:42:39;;;;;;;;;;;;;;;21.59;33.70;100441.69;5045481;28;1499;-89
2022/05/03 16:45:05;;;;;;;;;;;;;;;21.17;36.22;100441.28;5036482;28;1181;-89
2022/05/03 16:47:30;;;;;;;;;;;;;;;21.31;36.08;100452.84;5035432;28;1417;-88
2022/05/03 16:49:58;;;;;;;;;;;;;;;21.49;36.86;100447.78;5035228;28;1676;-89
2022/05/03 16:52:25;;;;;;;;;;;;;;;21.15;36.84;100451.94;5016000;28;1181;-89
2022/05/03 16:54:50;;;;;;;;;;;;;;;21.60;36.18;100448.06;5030671;28;1747;-90
2022/05/03 16:57:16;;;;;;;;;;;;;;;21.88;36.08;100459.97;5017336;28;1811;-90
2022/05/03 16:59:42;;;;;;;;;;;;;;;22.13;36.25;100458.69;5047990;28;1965;-89
2022/05/03 17:02:07;;;;;;;;;;;;;;;21.90;35.40;100457.66;5041410;28;1700;-90
2022/05/03 17:04:33;;;;;;;;;;;;;;;21.42;36.77;100464.28;5035523;28;1309;-88
2022/05/03 17:06:58;;;;;;;;;;;;;;;21.58;36.48;100469.91;5048529;28;1430;-89
2022/05/03 17:09:24;;;;;;;;;;;;;;;21.42;37.88;100467.88;5023820;28;1443;-90
2022/05/03 17:11:50;;;;;;;;;;;;;;;21.50;37.16;100469.72;5059005;28;1020;-90
2022/05/03 17:14:15;;;;;;;;;;;;;;;21.04;38.68;100465.53;5039109;28;1431;-89
2022/05/03 17:16:41;;;;;;;;;;;;;;;21.11;38.02;100470.47;5038661;28;1429;-89
2022/05/03 17:19:07;;;;;;;;;;;;;;;20.67;39.98;100464.75;5050871;28;1886;-89
2022/05/03 17:21:33;;;;;;;;;;;;;;;20.87;39.27;100473.31;5057264;28;1184;-89
2022/05/03 17:23:58;;;;;;;;;;;;;;;21.21;37.72;100464.47;5056307;28;1567;-89
2022/05/03 17:26:24;;;;;;;;;;;;;;;21.14;38.11;100467.81;5038965;28;1342;-89
2022/05/03 17:28:53;;;;;;;;;;;;;;;21.16;38.76;100470.25;5038293;28;1377;-89
2022/05/03 17:31:18;;;;;;;;;;;;;;;20.88;39.48;100466.59;5033329;28;1439;-89
2022/05/03 17:33:46;;;;;;;;;;;;;;;20.88;39.16;100472.97;5057279;28;1412;-89
2022/05/03 17:36:12;;;;;;;;;;;;;;;20.92;39.76;100473.91;5043673;28;1213;-89
2022/05/03 17:38:37;;;;;;;;;;;;;;;20.59;41.44;100465.69;5061668;28;1890;-90
2022/05/03 17:41:02;;;;;;;;;;;;;;;20.37;39.88;100474.50;5045029;28;1741;-89
2022/05/03 17:43:27;;;;;;;;;;;;;;;20.14;39.51;100488.00;5039286;28;1264;-90
2022/05/03 17:45:53;;;;;;;;;;;;;;;20.32;40.37;100477.50;5038395;28;1376;-89
2022/05/03 17:48:18;;;;;;;;;;;;;;;19.80;40.31;100486.44;5039620;28;1679;-89
2022/05/03 17:50:43;;;;;;;;;;;;;;;19.67;41.20;100493.09;5038509;28;1093;-90
2022/05/03 17:55:52;;;;;;;;;;;;;;;19.60;43.04;100496.41;5063895;28;1626;-89
2022/05/03 17:58:17;;;;;;;;;;;;;;;19.04;42.56;100497.03;5057670;28;1963;-89
2022/05/03 18:00:42;;;;;;;;;;;;;;;18.45;44.38;100506.16;5055667;28;1561;-90
2022/05/03 18:03:08;;;;;;;;;;;;;;;18.27;46.36;100509.31;5042336;28;1726;-89
2022/05/03 18:05:34;;;;;;;;;;;;;;;18.20;45.16;100514.56;5052509;28;1208;-89
2022/05/03 18:07:59;;;;;;;;;;;;;;;18.05;46.84;100516.69;5037379;28;1495;-89
2022/05/03 18:10:24;;;;;;;;;;;;;;;18.35;45.49;100517.59;5058494;28;1371;-88
2022/05/03 18:12:49;;;;;;;;;;;;;;;18.14;47.04;100523.03;5037440;28;1215;-89
2022/05/03 18:15:14;;;;;;;;;;;;;;;18.00;47.71;100530.75;5031836;28;1332;-89
2022/05/03 18:17:40;;;;;;;;;;;;;;;18.05;46.69;100524.19;5050392;28;1454;-89
2022/05/03 18:20:05;;;;;;;;;;;;;;;18.12;45.96;100530.03;5041592;28;1889;-91
2022/05/03 18:22:33;;;;;;;;;;;;;;;18.22;45.90;100535.22;5034340;28;1324;-90
2022/05/03 18:24:59;;;;;;;;;;;;;;;18.15;46.29;100530.19;5047446;28;1363;-89
2022/05/03 18:27:24;;;;;;;;;;;;;;;18.31;47.42;100537.97;5046563;28;1240;-90
2022/05/03 18:29:50;;;;;;;;;;;;;;;18.11;48.00;100536.75;5035209;28;1513;-89
2022/05/03 18:32:15;;;;;;;;;;;;;;;17.61;48.19;100537.25;5049919;28;1242;-89
2022/05/03 18:34:40;;;;;;;;;;;;;;;17.77;48.27;100534.84;5017046;28;1281;-90
2022/05/03 18:37:05;;;;;;;;;;;;;;;18.09;46.99;100539.84;5032666;28;1652;-89
2022/05/03 18:39:30;;;;;;;;;;;;;;;18.07;46.93;100536.59;5042328;28;1897;-89
2022/05/03 18:41:58;;;;;;;;;;;;;;;17.48;48.22;100542.97;5037879;28;1597;-89
2022/05/03 18:44:25;;;;;;;;;;;;;;;17.92;47.61;100541.84;5032650;28;1477;-89
2022/05/03 18:46:50;;;;;;;;;;;;;;;17.70;48.13;100548.34;5035089;28;1556;-90
2022/05/03 18:49:15;;;;;;;;;;;;;;;17.41;48.89;100554.53;5034918;28;1479;-89
2022/05/03 18:51:42;;;;;;;;;;;;;;;17.11;50.45;100555.47;5054297;28;1333;-90
2022/05/03 18:56:51;;;;;;;;;;;;;;;17.43;47.91;100560.56;5054878;28;1260;-89
2022/05/03 18:59:16;;;;;;;;;;;;;;;16.86;49.47;100570.84;5036536;28;1898;-90
2022/05/03 19:01:42;;;;;;;;;;;;;;;16.72;50.62;100572.94;5046248;28;1358;-89
2022/05/03 19:04:07;;;;;;;;;;;;;;;17.09;50.88;100574.34;5066462;28;962;-89
2022/05/03 19:06:32;;;;;;;;;;;;;;;16.89;51.15;100578.53;5068423;28;1290;-89
2022/05/03 19:08:57;;;;;;;;;;;;;;;16.95;51.09;100580.81;5074559;28;1029;-89
2022/05/03 19:11:24;;;;;;;;;;;;;;;16.84;51.25;100587.75;5056591;28;850;-90
2022/05/03 19:13:49;;;;;;;;;;;;;;;16.95;50.05;100589.09;5056506;28;1388;-90
2022/05/03 19:16:14;;;;;;;;;;;;;;;16.62;50.68;100585.91;5055106;28;1530;-90
2022/05/03 19:18:39;;;;;;;;;;;;;;;16.73;51.44;100593.91;5036694;28;1977;-90
2022/05/03 19:21:05;;;;;;;;;;;;;;;16.90;50.74;100588.44;5036265;28;1221;-90
2022/05/03 19:23:30;;;;;;;;;;;;;;;16.98;50.33;100596.75;5036124;28;1315;-90
2022/05/03 19:31:23;;;;;;;;;;;;;;;16.85;50.05;100591.34;5054774;28;682;-90
2022/05/03 19:33:49;;;;;;;;;;;;;;;16.80;50.86;100592.31;5036300;28;1176;-90
2022/05/03 19:36:15;;;;;;;;;;;;;;;16.67;51.41;100595.19;5033889;28;1280;-91
2022/05/03 19:38:40;;;;;;;;;;;;;;;16.32;51.56;100596.94;5029921;28;1894;-92
2022/05/03 19:41:05;;;;;;;;;;;;;;;16.25;52.14;100597.38;5036456;28;1389;-91
2022/05/03 19:43:30;;;;;;;;;;;;;;;16.36;51.73;100600.69;5035826;28;1498;-91
2022/05/03 19:45:56;;;;;;;;;;;;;;;16.19;52.34;100602.22;5029734;28;1596;-91
2022/05/03 19:48:21;;;;;;;;;;;;;;;16.21;52.74;100599.97;5031282;28;1343;-92
2022/05/03 19:50:46;;;;;;;;;;;;;;;16.19;52.11;100601.41;5047326;28;1364;-91
2022/05/03 19:53:14;;;;;;;;;;;;;;;16.07;52.23;100603.94;5046886;28;1353;-91
2022/05/03 19:55:40;;;;;;;;;;;;;;;16.02;53.60;100604.03;5035548;28;1367;-91
2022/05/03 19:58:06;;;;;;;;;;;;;;;15.87;54.04;100599.72;5036418;28;1974;-91
2022/05/03 20:00:33;;;;;;;;;;;;;;;15.49;55.13;100600.00;5021753;28;1195;-91
2022/05/03 20:02:58;;;;;;;;;;;;;;;15.71;53.88;100601.22;5036001;28;1339;-91
2022/05/03 20:05:24;;;;;;;;;;;;;;;15.76;53.59;100606.59;5034197;28;1271;-91
2022/05/03 20:07:52;;;;;;;;;;;;;;;15.36;55.18;100613.84;5039541;28;1462;-90
2022/05/03 20:10:19;;;;;;;;;;;;;;;15.15;54.67;100608.75;5054741;28;1141;-90
2022/05/03 20:12:44;;;;;;;;;;;;;;;14.95;56.40;100613.91;5042847;28;813;-90
2022/05/03 20:15:10;;;;;;;;;;;;;;;15.24;55.27;100621.81;5039050;28;1198;-90
2022/05/03 20:17:35;;;;;;;;;;;;;;;15.18;55.67;100615.63;5042738;28;1284;-91
2022/05/03 20:20:01;;;;;;;;;;;;;;;15.18;55.27;100628.56;5036184;28;1961;-90
2022/05/03 20:22:27;;;;;;;;;;;;;;;14.83;56.37;100619.91;5036217;28;1378;-89
2022/05/03 20:24:52;;;;;;;;;;;;;;;14.59;56.42;100636.63;5035897;28;1282;-90
2022/05/03 20:27:17;;;;;;;;;;;;;;;13.80;59.06;100635.72;5040235;28;1397;-88
2022/05/03 20:29:42;;;;;;;;;;;;;;;13.94;58.77;100631.13;5035273;28;1667;-88
2022/05/03 20:32:09;;;;;;;;;;;;;;;14.34;57.91;100637.88;5029148;28;1579;-88
2022/05/03 20:34:34;;;;;;;;;;;;;;;14.45;57.47;100630.28;5035124;28;1391;-88
2022/05/03 20:37:02;;;;;;;;;;;;;;;14.16;57.96;100637.91;5046473;28;1472;-89
2022/05/03 20:39:27;;;;;;;;;;;;;;;14.01;59.70;100641.75;5032907;28;1899;-89
2022/05/03 20:41:52;;;;;;;;;;;;;;;14.39;57.95;100643.31;5032014;28;1323;-89
2022/05/03 20:44:17;;;;;;;;;;;;;;;14.41;57.51;100643.03;5034746;28;1577;-89
2022/05/03 20:49:26;;;;;;;;;;;;;;;13.91;58.83;100652.91;5053939;28;821;-89
2022/05/03 20:51:52;;;;;;;;;;;;;;;13.91;59.45;100650.97;5035848;28;1176;-89
2022/05/03 20:54:17;;;;;;;;;;;;;;;13.87;59.14;100651.84;5035631;28;1209;-89
2022/05/03 20:56:43;;;;;;;;;;;;;;;13.26;60.83;100655.50;5035687;28;1239;-89
2022/05/03 20:59:08;;;;;;;;;;;;;;;13.34;61.76;100656.75;5035636;28;1969;-89
2022/05/03 21:01:33;;;;;;;;;;;;;;;13.82;59.68;100665.69;5035596;28;1250;-89
2022/05/03 21:03:58;;;;;;;;;;;;;;;13.77;59.01;100663.88;5053491;28;968;-90
2022/05/03 21:06:24;;;;;;;;;;;;;;;13.84;60.06;100672.56;5035687;28;1339;-90
2022/05/03 21:08:49;;;;;;;;;;;;;;;13.96;58.71;100670.16;5015923;28;1392;-89
2022/05/03 21:11:15;;;;;;;;;;;;;;;13.86;58.33;100670.34;5046484;28;1636;-88
2022/05/03 21:13:41;;;;;;;;;;;;;;;13.17;62.00;100671.81;5037672;28;1221;-88
2022/05/03 21:16:06;;;;;;;;;;;;;;;13.02;60.99;100666.44;5034251;28;1217;-90
2022/05/03 21:18:32;;;;;;;;;;;;;;;12.73;62.46;100673.94;5053168;28;1910;-90
2022/05/03 21:20:58;;;;;;;;;;;;;;;12.84;61.82;100673.50;5035724;28;1169;-90
2022/05/03 21:23:24;;;;;;;;;;;;;;;13.25;59.52;100670.34;5034746;28;1473;-89
2022/05/03 21:25:49;;;;;;;;;;;;;;;11.88;64.14;100673.56;5035866;28;1188;-89
2022/05/03 21:28:14;;;;;;;;;;;;;;;12.16;63.62;100672.81;5033251;28;1440;-89
2022/05/03 21:30:39;;;;;;;;;;;;;;;12.80;61.38;100675.22;5035117;28;1551;-89
2022/05/03 21:33:04;;;;;;;;;;;;;;;12.43;61.58;100678.59;5035294;28;1294;-90
2022/05/03 21:35:30;;;;;;;;;;;;;;;11.96;64.07;100678.44;5052882;28;1456;-90
2022/05/03 21:37:55;;;;;;;;;;;;;;;12.16;63.39;100681.03;5034705;28;1961;-90
2022/05/03 21:40:20;;;;;;;;;;;;;;;12.28;62.82;100676.00;5043945;28;1203;-91
2022/05/03 21:42:45;;;;;;;;;;;;;;;12.52;61.72;100678.78;5036307;28;1332;-92
2022/05/03 21:45:11;;;;;;;;;;;;;;;12.51;61.72;100680.72;5015916;28;1335;-91
